createdAt,value
2023-04-18T00:00:10.832Z,3.67
2023-04-18T00:02:44.266Z,3.67
2023-04-18T00:05:13.583Z,3.71
2023-04-18T00:07:43.832Z,3.66
2023-04-18T00:10:12.942Z,3.68
2023-04-18T00:12:43.047Z,3.60
2023-04-18T00:15:13.744Z,3.53
2023-04-18T00:17:42.779Z,3.59
2023-04-18T00:20:12.835Z,3.58
2023-04-18T00:22:45.173Z,3.58
2023-04-18T00:25:14.111Z,3.53
2023-04-18T00:27:43.303Z,3.56
2023-04-18T00:30:13.184Z,3.46
2023-04-18T00:32:41.984Z,3.46
2023-04-18T00:35:11.017Z,3.44
2023-04-18T00:37:40.224Z,3.50
2023-04-18T00:40:13.051Z,3.39
2023-04-18T00:42:41.691Z,3.42
2023-04-18T00:45:11.885Z,3.51
2023-04-18T00:47:40.677Z,3.35
2023-04-18T00:50:11.872Z,3.42
2023-04-18T00:52:40.760Z,3.44
2023-04-18T00:55:12.202Z,3.39
2023-04-18T00:57:41.642Z,3.44
2023-04-18T01:00:11.625Z,3.46
2023-04-18T01:02:43.195Z,3.42
2023-04-18T01:05:12.172Z,3.42
2023-04-18T01:07:41.907Z,3.37
2023-04-18T01:10:12.728Z,3.40
2023-04-18T01:12:42.422Z,3.35
2023-04-18T01:15:11.868Z,3.31
2023-04-18T01:17:41.003Z,3.35
2023-04-18T01:20:12.365Z,3.35
2023-04-18T01:22:42.183Z,3.35
2023-04-18T01:25:13.651Z,3.33
2023-04-18T01:27:42.395Z,3.28
2023-04-18T01:30:12.882Z,3.25
2023-04-18T01:32:41.652Z,3.17
2023-04-18T01:35:11.261Z,3.15
2023-04-18T01:37:40.266Z,3.11
2023-04-18T01:40:12.844Z,3.03
2023-04-18T01:42:41.564Z,3.11
2023-04-18T01:45:14.153Z,2.95
2023-04-18T01:47:43.230Z,2.97
2023-04-18T01:50:15.344Z,3.12
2023-04-18T01:52:44.968Z,3.18
2023-04-18T01:55:15.270Z,3.11
2023-04-18T01:57:43.962Z,3.09
2023-04-18T02:00:14.237Z,3.07
2023-04-18T02:02:45.857Z,3.05
2023-04-18T02:05:14.637Z,3.09
2023-04-18T02:07:43.468Z,3.07
2023-04-18T02:10:14.332Z,3.00
2023-04-18T02:12:43.169Z,2.93
2023-04-18T02:15:13.019Z,2.91
2023-04-18T02:17:42.470Z,2.90
2023-04-18T02:20:13.522Z,2.85
2023-04-18T02:22:42.342Z,2.94
2023-04-18T02:25:12.046Z,2.83
2023-04-18T02:27:42.626Z,2.84
2023-04-18T02:30:12.285Z,2.81
2023-04-18T02:32:41.188Z,2.74
2023-04-18T02:35:10.500Z,2.72
2023-04-18T02:37:39.231Z,2.73
2023-04-18T02:40:10.145Z,2.89
2023-04-18T02:42:38.866Z,2.73
2023-04-18T02:45:10.824Z,2.84
2023-04-18T02:47:47.380Z,2.80
2023-04-18T02:50:23.058Z,2.71
2023-04-18T02:52:52.264Z,2.81
2023-04-18T02:55:23.177Z,2.67
2023-04-18T02:57:53.587Z,2.82
2023-04-18T03:01:00.080Z,2.80
2023-04-18T03:03:28.846Z,2.76
2023-04-18T03:06:17.853Z,2.80
2023-04-18T03:08:46.753Z,2.75
2023-04-18T03:11:16.214Z,2.59
2023-04-18T03:13:44.986Z,2.70
2023-04-18T03:16:15.979Z,2.65
2023-04-18T03:18:45.395Z,2.74
2023-04-18T03:21:14.893Z,2.76
2023-04-18T03:23:43.988Z,2.87
2023-04-18T03:26:14.012Z,2.82
2023-04-18T03:28:44.186Z,2.91
2023-04-18T03:31:13.509Z,2.88
2023-04-18T03:33:47.297Z,2.86
2023-04-18T03:36:18.600Z,2.91
2023-04-18T03:38:47.536Z,2.97
2023-04-18T03:41:16.251Z,3.11
2023-04-18T03:43:44.977Z,3.12
2023-04-18T03:46:13.949Z,3.09
2023-04-18T03:48:46.149Z,3.16
2023-04-18T03:51:23.527Z,3.11
2023-04-18T03:53:52.277Z,3.18
2023-04-18T03:56:21.025Z,3.20
2023-04-18T03:58:52.860Z,3.20
2023-04-18T04:01:23.072Z,3.04
2023-04-18T04:03:53.896Z,3.28
2023-04-18T04:06:24.650Z,3.46
2023-04-18T04:08:53.355Z,3.41
2023-04-18T04:11:26.083Z,3.52
2023-04-18T04:13:55.577Z,3.46
2023-04-18T04:16:30.002Z,3.58
2023-04-18T04:18:58.882Z,3.66
2023-04-18T04:21:35.964Z,3.87
2023-04-18T04:24:07.012Z,4.01
2023-04-18T04:26:42.791Z,3.93
2023-04-18T04:29:16.458Z,4.17
2023-04-18T04:31:47.117Z,4.14
2023-04-18T04:34:20.459Z,4.18
2023-04-18T04:36:51.254Z,4.34
2023-04-18T04:39:20.334Z,4.30
2023-04-18T04:42:07.658Z,4.52
2023-04-18T04:44:45.162Z,4.62
2023-04-18T04:47:14.239Z,4.63
2023-04-18T04:49:42.994Z,4.82
2023-04-18T04:52:13.186Z,4.89
2023-04-18T04:54:42.055Z,5.00
2023-04-18T04:57:14.106Z,5.09
2023-04-18T04:59:42.840Z,5.14
2023-04-18T05:02:12.920Z,5.29
2023-04-18T05:04:43.178Z,5.49
2023-04-18T05:07:13.378Z,5.57
2023-04-18T05:09:42.011Z,5.53
2023-04-18T05:12:10.889Z,5.70
2023-04-18T05:14:39.702Z,5.66
2023-04-18T05:17:08.623Z,5.79
2023-04-18T05:19:37.523Z,5.77
2023-04-18T05:22:06.409Z,6.01
2023-04-18T05:24:36.451Z,6.12
2023-04-18T05:27:06.012Z,6.32
2023-04-18T05:29:34.939Z,6.31
2023-04-18T05:32:03.644Z,6.34
2023-04-18T05:34:32.375Z,6.53
2023-04-18T05:37:01.193Z,6.75
2023-04-18T05:39:30.095Z,6.83
2023-04-18T05:42:00.920Z,6.90
2023-04-18T05:44:30.539Z,7.03
2023-04-18T05:46:59.262Z,7.05
2023-04-18T05:49:28.009Z,7.26
2023-04-18T05:51:57.386Z,7.38
2023-04-18T05:54:26.339Z,7.56
2023-04-18T05:56:57.067Z,7.72
2023-04-18T05:59:27.984Z,7.93
2023-04-18T06:01:57.360Z,8.07
2023-04-18T06:04:26.220Z,8.30
2023-04-18T06:06:55.121Z,8.38
2023-04-18T06:09:23.948Z,8.40
2023-04-18T06:11:52.881Z,8.47
2023-04-18T06:14:21.532Z,8.44
2023-04-18T06:16:51.781Z,8.40
2023-04-18T06:19:20.536Z,8.59
2023-04-18T06:21:50.272Z,8.74
2023-04-18T06:24:18.996Z,8.71
2023-04-18T06:26:47.741Z,9.01
2023-04-18T06:29:18.158Z,8.87
2023-04-18T06:31:48.469Z,9.06
2023-04-18T06:34:18.971Z,9.20
2023-04-18T06:36:48.252Z,9.33
2023-04-18T06:39:17.095Z,9.42
2023-04-18T06:41:45.947Z,9.44
2023-04-18T06:44:24.610Z,9.59
2023-04-18T06:46:53.440Z,9.58
2023-04-18T06:49:26.446Z,9.76
2023-04-18T06:51:55.678Z,9.86
2023-04-18T06:54:24.428Z,9.99
2023-04-18T06:56:54.609Z,10.16
2023-04-18T06:59:23.525Z,10.25
2023-04-18T07:01:52.840Z,10.34
2023-04-18T07:04:23.008Z,10.47
2023-04-18T07:06:54.411Z,10.59
2023-04-18T07:09:23.669Z,10.68
2023-04-18T07:11:52.989Z,10.80
2023-04-18T07:14:24.268Z,10.67
2023-04-18T07:16:53.553Z,10.83
2023-04-18T07:19:23.756Z,10.86
2023-04-18T07:21:52.443Z,11.03
2023-04-18T07:24:23.614Z,11.21
2023-04-18T07:26:54.797Z,11.12
2023-04-18T07:29:24.025Z,11.23
2023-04-18T07:31:53.202Z,11.26
2023-04-18T07:34:23.627Z,11.34
2023-04-18T07:36:52.409Z,11.20
2023-04-18T07:39:21.077Z,11.22
2023-04-18T07:41:50.009Z,11.27
2023-04-18T07:44:18.751Z,11.23
2023-04-18T07:46:47.525Z,11.40
2023-04-18T07:49:16.640Z,11.46
2023-04-18T07:51:46.952Z,11.36
2023-04-18T07:54:15.821Z,11.47
2023-04-18T07:56:44.705Z,11.49
2023-04-18T07:59:13.825Z,11.62
2023-04-18T08:01:42.696Z,11.84
2023-04-18T08:04:12.008Z,11.87
2023-04-18T08:06:40.873Z,11.85
2023-04-18T08:09:12.058Z,11.92
2023-04-18T08:11:44.135Z,12.17
2023-04-18T08:14:13.244Z,12.33
2023-04-18T08:16:42.115Z,12.36
2023-04-18T08:19:11.419Z,12.32
2023-04-18T08:21:40.267Z,12.43
2023-04-18T08:24:10.693Z,12.67
2023-04-18T08:26:40.675Z,12.81
2023-04-18T08:29:09.386Z,12.89
2023-04-18T08:31:38.161Z,12.99
2023-04-18T08:34:23.539Z,13.07
2023-04-18T08:36:53.288Z,13.27
2023-04-18T08:39:26.633Z,13.34
2023-04-18T08:42:02.417Z,13.23
2023-04-18T08:44:32.849Z,13.25
2023-04-18T08:47:03.426Z,13.33
2023-04-18T08:49:33.743Z,13.41
2023-04-18T08:52:06.567Z,13.54
2023-04-18T08:54:38.646Z,13.67
2023-04-18T08:57:12.598Z,13.62
2023-04-18T08:59:43.129Z,13.83
2023-04-18T09:02:22.410Z,13.89
2023-04-18T09:04:53.742Z,13.87
2023-04-18T09:07:30.919Z,13.67
2023-04-18T09:10:12.724Z,13.82
2023-04-18T09:13:03.972Z,13.69
2023-04-18T09:15:47.475Z,13.65
2023-04-18T09:18:18.558Z,13.56
2023-04-18T09:20:49.996Z,13.61
2023-04-18T09:23:27.151Z,13.78
2023-04-18T09:25:59.118Z,13.76
2023-04-18T09:28:32.208Z,13.76
2023-04-18T09:31:12.103Z,13.83
2023-04-18T09:33:46.464Z,13.79
2023-04-18T09:36:21.070Z,13.78
2023-04-18T09:38:53.675Z,13.87
2023-04-18T09:41:26.067Z,13.90
2023-04-18T09:44:15.128Z,13.81
2023-04-18T09:46:47.639Z,13.86
2023-04-18T09:49:17.632Z,14.01
2023-04-18T09:51:47.274Z,14.10
2023-04-18T09:54:18.417Z,14.01
2023-04-18T09:56:51.870Z,13.99
2023-04-18T09:59:42.324Z,13.98
2023-04-18T10:02:18.911Z,14.22
2023-04-18T10:04:50.471Z,14.21
2023-04-18T10:07:20.162Z,14.29
2023-04-18T10:09:50.692Z,14.38
2023-04-18T10:12:21.592Z,14.44
2023-04-18T10:14:51.300Z,14.38
2023-04-18T10:17:22.453Z,14.41
2023-04-18T10:20:08.066Z,14.34
2023-04-18T10:22:36.851Z,14.27
2023-04-18T10:25:06.882Z,14.26
2023-04-18T10:28:01.340Z,14.48
2023-04-18T10:31:05.016Z,14.55
2023-04-18T10:33:42.516Z,14.40
2023-04-18T10:36:20.538Z,14.41
2023-04-18T10:38:51.577Z,14.46
2023-04-18T10:41:24.046Z,14.54
2023-04-18T10:44:30.479Z,14.51
2023-04-18T10:47:24.212Z,14.52
2023-04-18T10:50:11.915Z,14.50
2023-04-18T10:52:41.787Z,14.51
2023-04-18T10:55:19.575Z,14.63
2023-04-18T10:57:51.639Z,14.67
2023-04-18T11:00:24.723Z,14.86
2023-04-18T11:02:57.812Z,14.85
2023-04-18T11:05:29.383Z,14.85
2023-04-18T11:07:58.130Z,14.77
2023-04-18T11:10:29.646Z,14.74
2023-04-18T11:13:04.671Z,14.67
2023-04-18T11:15:39.948Z,14.72
2023-04-18T11:18:10.864Z,14.63
2023-04-18T11:20:47.255Z,14.34
2023-04-18T11:23:22.994Z,14.44
2023-04-18T11:25:53.791Z,14.50
2023-04-18T11:28:25.094Z,14.67
2023-04-18T11:31:00.539Z,14.76
2023-04-18T11:33:30.417Z,14.76
2023-04-18T11:36:00.203Z,14.75
2023-04-18T11:38:31.354Z,14.74
2023-04-18T11:41:00.453Z,14.59
2023-04-18T11:43:29.153Z,14.51
2023-04-18T11:46:01.798Z,14.45
2023-04-18T11:48:36.480Z,14.35
2023-04-18T11:51:06.492Z,14.29
2023-04-18T11:53:36.645Z,14.44
2023-04-18T11:56:06.557Z,14.56
2023-04-18T11:58:38.782Z,14.63
2023-04-18T12:01:24.916Z,14.51
2023-04-18T12:04:05.255Z,14.52
2023-04-18T12:06:50.318Z,14.41
2023-04-18T12:09:19.762Z,14.25
2023-04-18T12:11:59.446Z,13.98
2023-04-18T12:14:28.524Z,14.00
2023-04-18T12:16:58.694Z,13.90
2023-04-18T12:19:28.869Z,13.79
2023-04-18T12:22:01.679Z,13.77
2023-04-18T12:24:32.407Z,13.74
2023-04-18T12:27:01.354Z,13.75
2023-04-18T12:29:30.984Z,13.67
2023-04-18T12:32:01.092Z,13.76
2023-04-18T12:34:30.046Z,13.78
2023-04-18T12:36:58.796Z,13.81
2023-04-18T12:39:27.517Z,13.76
2023-04-18T12:41:57.374Z,13.72
2023-04-18T12:44:28.320Z,13.71
2023-04-18T12:47:01.766Z,13.93
2023-04-18T12:49:30.496Z,13.96
2023-04-18T12:51:59.130Z,13.97
2023-04-18T12:54:27.802Z,14.00
2023-04-18T12:56:56.486Z,14.09
2023-04-18T12:59:25.252Z,14.02
2023-04-18T13:01:53.951Z,13.99
2023-04-18T13:04:24.343Z,13.93
2023-04-18T13:06:53.146Z,13.93
2023-04-18T13:09:21.809Z,14.04
2023-04-18T13:11:50.539Z,13.99
2023-04-18T13:14:19.252Z,13.96
2023-04-18T13:16:48.812Z,13.90
2023-04-18T13:19:17.542Z,13.73
2023-04-18T13:21:49.580Z,13.76
2023-04-18T13:24:18.474Z,13.76
2023-04-18T13:26:47.343Z,13.55
2023-04-18T13:29:16.270Z,13.64
2023-04-18T13:31:45.206Z,13.67
2023-04-18T13:34:14.163Z,13.55
2023-04-18T13:36:43.060Z,13.48
2023-04-18T13:39:14.920Z,13.55
2023-04-18T13:41:43.870Z,13.42
2023-04-18T13:44:12.523Z,13.23
2023-04-18T13:46:41.281Z,13.12
2023-04-18T13:49:10.008Z,13.05
2023-04-18T13:51:38.701Z,13.02
2023-04-18T13:54:07.583Z,13.01
2023-04-18T13:56:39.961Z,13.11
2023-04-18T13:59:08.705Z,13.16
2023-04-18T14:01:37.408Z,13.18
2023-04-18T14:04:06.706Z,13.24
2023-04-18T14:06:35.657Z,13.27
2023-04-18T14:09:04.262Z,13.31
2023-04-18T14:11:33.257Z,13.21
2023-04-18T14:14:07.238Z,13.18
2023-04-18T14:16:36.282Z,12.99
2023-04-18T14:19:05.223Z,12.88
2023-04-18T14:21:33.893Z,12.88
2023-04-18T14:24:02.645Z,12.83
2023-04-18T14:26:31.538Z,12.80
2023-04-18T14:29:00.628Z,12.76
2023-04-18T14:31:30.720Z,12.70
2023-04-18T14:33:59.608Z,12.66
2023-04-18T14:36:28.464Z,12.55
2023-04-18T14:38:57.174Z,12.50
2023-04-18T14:41:25.839Z,12.64
2023-04-18T14:43:57.414Z,12.67
2023-04-18T14:46:28.287Z,12.69
2023-04-18T14:48:59.515Z,12.73
2023-04-18T14:51:28.259Z,12.77
2023-04-18T14:53:56.987Z,12.84
2023-04-18T14:56:25.754Z,12.73
2023-04-18T14:58:54.512Z,12.78
2023-04-18T15:01:23.213Z,12.74
2023-04-18T15:03:52.447Z,12.79
2023-04-18T15:06:23.161Z,12.82
2023-04-18T15:08:54.468Z,12.73
2023-04-18T15:11:24.395Z,12.71
2023-04-18T15:13:55.941Z,12.69
2023-04-18T15:16:24.751Z,12.70
2023-04-18T15:18:53.529Z,12.60
2023-04-18T15:21:23.651Z,12.67
2023-04-18T15:23:52.391Z,12.60
2023-04-18T15:26:21.172Z,12.66
2023-04-18T15:28:49.902Z,12.67
2023-04-18T15:31:18.564Z,12.69
2023-04-18T15:33:47.248Z,12.66
2023-04-18T15:36:15.917Z,12.56
2023-04-18T15:38:46.283Z,12.55
2023-04-18T15:41:14.916Z,12.44
2023-04-18T15:43:45.412Z,12.32
2023-04-18T15:46:14.365Z,12.39
2023-04-18T15:48:43.043Z,12.36
2023-04-18T15:51:11.717Z,12.26
2023-04-18T15:53:40.633Z,12.41
2023-04-18T15:56:11.190Z,12.50
2023-04-18T15:58:39.970Z,12.62
2023-04-18T16:01:09.543Z,12.84
2023-04-18T16:03:38.768Z,13.04
2023-04-18T16:06:08.101Z,13.27
2023-04-18T16:08:37.178Z,13.43
2023-04-18T16:11:06.127Z,13.45
2023-04-18T16:13:38.398Z,13.50
2023-04-18T16:16:08.089Z,13.53
2023-04-18T16:18:36.822Z,13.42
2023-04-18T16:21:06.008Z,13.41
2023-04-18T16:23:34.756Z,13.36
2023-04-18T16:26:03.554Z,13.34
2023-04-18T16:28:37.554Z,13.32
2023-04-18T16:31:08.015Z,13.31
2023-04-18T16:33:36.838Z,13.27
2023-04-18T16:36:07.362Z,13.23
2023-04-18T16:38:36.166Z,13.08
2023-04-18T16:41:05.017Z,12.93
2023-04-18T16:43:36.520Z,12.73
2023-04-18T16:46:07.590Z,12.53
2023-04-18T16:48:39.584Z,12.28
2023-04-18T16:51:08.262Z,12.03
2023-04-18T16:53:37.027Z,11.74
2023-04-18T16:56:07.930Z,11.56
2023-04-18T16:58:36.686Z,11.29
2023-04-18T17:01:08.165Z,11.13
2023-04-18T17:03:38.562Z,10.94
2023-04-18T17:06:27.607Z,10.73
2023-04-18T17:09:08.390Z,10.55
2023-04-18T17:11:42.705Z,10.48
2023-04-18T17:14:13.079Z,10.40
2023-04-18T17:16:43.204Z,10.26
2023-04-18T17:19:13.942Z,10.11
2023-04-18T17:21:44.064Z,9.98
2023-04-18T17:24:12.872Z,10.00
2023-04-18T17:26:41.484Z,9.88
2023-04-18T17:29:10.571Z,9.73
2023-04-18T17:31:39.257Z,9.70
2023-04-18T17:34:08.044Z,9.64
2023-04-18T17:36:38.135Z,9.54
2023-04-18T17:39:06.874Z,9.47
2023-04-18T17:41:38.247Z,9.40
2023-04-18T17:44:08.561Z,9.38
2023-04-18T17:46:37.787Z,9.36
2023-04-18T17:49:06.634Z,9.38
2023-04-18T17:51:35.388Z,9.24
2023-04-18T17:54:06.184Z,9.18
2023-04-18T17:56:35.059Z,9.18
2023-04-18T17:59:03.874Z,9.12
2023-04-18T18:01:32.974Z,9.05
2023-04-18T18:04:02.633Z,9.08
2023-04-18T18:06:31.463Z,9.00
2023-04-18T18:09:00.275Z,8.85
2023-04-18T18:11:30.465Z,8.77
2023-04-18T18:13:59.303Z,8.66
2023-04-18T18:16:28.177Z,8.68
2023-04-18T18:18:57.017Z,8.67
2023-04-18T18:21:26.373Z,8.59
2023-04-18T18:23:55.107Z,8.49
2023-04-18T18:26:26.507Z,8.49
2023-04-18T18:28:56.637Z,8.40
2023-04-18T18:31:25.786Z,8.45
2023-04-18T18:33:54.657Z,8.40
2023-04-18T18:36:23.396Z,8.26
2023-04-18T18:38:52.119Z,8.24
2023-04-18T18:41:23.420Z,8.23
2023-04-18T18:43:52.674Z,8.20
2023-04-18T18:46:22.704Z,8.08
2023-04-18T18:48:52.022Z,8.10
2023-04-18T18:51:20.796Z,8.06
2023-04-18T18:53:49.513Z,7.98
2023-04-18T18:56:18.253Z,7.91
2023-04-18T18:58:47.205Z,7.96
2023-04-18T19:01:16.000Z,7.88
2023-04-18T19:03:46.299Z,7.79
2023-04-18T19:06:15.457Z,7.63
2023-04-18T19:08:44.267Z,7.77
2023-04-18T19:11:13.149Z,7.61
2023-04-18T19:13:41.864Z,7.58
2023-04-18T19:16:10.677Z,7.51
2023-04-18T19:18:41.543Z,7.57
2023-04-18T19:21:11.623Z,7.51
2023-04-18T19:23:41.842Z,7.42
2023-04-18T19:26:11.093Z,7.40
2023-04-18T19:28:39.993Z,7.44
2023-04-18T19:31:09.647Z,7.27
2023-04-18T19:33:39.042Z,7.31
2023-04-18T19:36:08.022Z,7.33
2023-04-18T19:38:38.330Z,7.35
2023-04-18T19:41:08.183Z,7.24
2023-04-18T19:43:47.314Z,7.28
2023-04-18T19:46:21.837Z,7.21
2023-04-18T19:48:50.696Z,7.19
2023-04-18T19:51:24.548Z,7.16
2023-04-18T19:53:55.487Z,7.16
2023-04-18T19:56:24.226Z,7.06
2023-04-18T19:58:53.012Z,7.03
2023-04-18T20:01:22.183Z,6.93
2023-04-18T20:03:51.129Z,7.03
2023-04-18T20:06:20.244Z,6.96
2023-04-18T20:08:48.918Z,7.00
2023-04-18T20:11:19.179Z,6.96
2023-04-18T20:13:47.877Z,6.92
2023-04-18T20:16:16.974Z,7.00
2023-04-18T20:18:47.617Z,6.91
2023-04-18T20:21:16.569Z,6.95
2023-04-18T20:23:45.860Z,6.93
2023-04-18T20:26:14.620Z,6.88
2023-04-18T20:28:44.721Z,6.87
2023-04-18T20:31:13.426Z,6.86
2023-04-18T20:33:42.367Z,6.84
2023-04-18T20:36:10.999Z,6.84
2023-04-18T20:38:40.303Z,6.70
2023-04-18T20:41:10.742Z,6.74
2023-04-18T20:43:41.123Z,6.74
2023-04-18T20:46:12.858Z,6.71
2023-04-18T20:48:41.707Z,6.71
2023-04-18T20:51:10.558Z,6.61
2023-04-18T20:53:39.366Z,6.63
2023-04-18T20:56:08.102Z,6.69
2023-04-18T20:58:36.856Z,6.75
2023-04-18T21:01:05.695Z,6.61
2023-04-18T21:03:35.998Z,6.68
2023-04-18T21:06:05.077Z,6.64
2023-04-18T21:08:37.889Z,6.65
2023-04-18T21:11:08.062Z,6.52
2023-04-18T21:13:36.809Z,6.58
2023-04-18T21:16:07.967Z,6.63
2023-04-18T21:18:38.326Z,6.49
2023-04-18T21:21:07.534Z,6.56
2023-04-18T21:23:43.821Z,6.58
2023-04-18T21:26:13.676Z,6.52
2023-04-18T21:29:00.418Z,6.54
2023-04-18T21:31:32.851Z,6.51
2023-04-18T21:34:04.804Z,6.40
2023-04-18T21:36:34.409Z,6.42
2023-04-18T21:39:04.056Z,6.34
2023-04-18T21:41:32.706Z,6.35
2023-04-18T21:44:01.481Z,6.39
2023-04-18T21:46:30.201Z,6.32
2023-04-18T21:48:58.864Z,6.39
2023-04-18T21:51:28.972Z,6.29
2023-04-18T21:53:57.644Z,6.29
2023-04-18T21:56:26.829Z,6.20
2023-04-18T21:58:55.616Z,6.24
2023-04-18T22:01:24.359Z,6.19
2023-04-18T22:03:53.890Z,6.28
2023-04-18T22:06:27.108Z,6.26
2023-04-18T22:08:58.990Z,6.21
2023-04-18T22:11:30.195Z,6.14
2023-04-18T22:14:03.287Z,6.28
2023-04-18T22:16:33.512Z,6.15
2023-04-18T22:19:04.134Z,6.13
2023-04-18T22:21:33.149Z,6.09
2023-04-18T22:24:06.555Z,6.17
2023-04-18T22:26:37.630Z,6.17
2023-04-18T22:29:08.307Z,6.19
2023-04-18T22:31:38.871Z,6.14
2023-04-18T22:34:09.779Z,6.16
2023-04-18T22:36:38.726Z,6.12
2023-04-18T22:39:10.130Z,6.15
2023-04-18T22:41:38.978Z,6.07
2023-04-18T22:44:08.223Z,6.04
2023-04-18T22:46:45.749Z,6.03
2023-04-18T22:49:18.024Z,5.96
2023-04-18T22:51:50.283Z,5.89
2023-04-18T22:54:22.294Z,5.85
2023-04-18T22:56:52.667Z,5.95
2023-04-18T22:59:24.434Z,5.97
2023-04-18T23:02:02.707Z,5.90
2023-04-18T23:04:35.805Z,5.86
2023-04-18T23:07:06.747Z,5.98
2023-04-18T23:09:46.098Z,5.92
2023-04-18T23:12:14.974Z,5.98
2023-04-18T23:14:50.240Z,5.98
2023-04-18T23:17:23.123Z,5.95
2023-04-18T23:19:58.885Z,5.70
2023-04-18T23:22:30.818Z,5.62
2023-04-18T23:25:02.612Z,5.48
2023-04-18T23:27:33.433Z,5.48
2023-04-18T23:30:03.828Z,5.39
2023-04-18T23:32:36.784Z,5.39
2023-04-18T23:35:07.876Z,5.39
2023-04-18T23:37:36.934Z,5.26
2023-04-18T23:40:10.303Z,5.14
2023-04-18T23:42:40.662Z,5.02
2023-04-18T23:45:10.230Z,4.86
2023-04-18T23:47:39.094Z,4.78
2023-04-18T23:50:09.569Z,4.69
2023-04-18T23:52:38.648Z,4.75
2023-04-18T23:55:10.194Z,4.68
2023-04-18T23:57:38.859Z,4.66
